Time;durP1;ratioP1;P1;durP2;ratioP2;P2;SDS_P1;SDS_P2;PMS_P1;PMS_P2;Temp;Humidity;BMP_temperature;BMP_pressure;BME280_temperature;BME280_humidity;BME280_pressure;Samples;Min_cycle;Max_cycle;Signal;HPM_P1;HPM_P2
2021/01/14 00:00:26;;;;;;;;;;;;;;;0.85;100.00;92656.13;1064460;55;20168;-85
2021/01/14 00:01:27;;;;;;;;;;;;;;;0.78;100.00;92643.66;1061370;56;20667;-84
2021/01/14 00:02:29;;;;;;;;;;;;;;;0.73;100.00;92654.53;1059500;56;20174;-86
2021/01/14 00:03:29;;;;;;;;;;;;;;;0.85;100.00;92650.88;1061528;56;20163;-85
2021/01/14 00:04:30;;;;;;;;;;;;;;;0.97;100.00;92647.94;1061590;56;20181;-84
2021/01/14 00:05:30;;;;;;;;;;;;;;;0.85;100.00;92649.00;1061480;56;20242;-86
2021/01/14 00:06:31;;;;;;;;;;;;;;;0.83;100.00;92643.31;1063794;55;20189;-85
2021/01/14 00:07:31;;;;;;;;;;;;;;;0.84;100.00;92634.34;1063733;55;20635;-85
2021/01/14 00:08:32;;;;;;;;;;;;;;;0.81;100.00;92639.56;1061522;56;20259;-84
2021/01/14 00:09:34;;;;;;;;;;;;;;;0.85;100.00;92635.09;1061616;55;20226;-85
2021/01/14 00:10:37;;;;;;;;;;;;;;;0.81;100.00;92632.44;1061516;56;20234;-85
2021/01/14 00:11:38;;;;;;;;;;;;;;;0.88;100.00;92627.22;1061716;56;20257;-86
2021/01/14 00:12:41;;;;;;;;;;;;;;;0.90;100.00;92627.59;1061646;56;20658;-84
2021/01/14 00:13:43;;;;;;;;;;;;;;;0.77;100.00;92626.38;1063802;55;20564;-85
2021/01/14 00:14:43;;;;;;;;;;;;;;;0.65;100.00;92621.41;1063785;55;20391;-86
2021/01/14 00:15:44;;;;;;;;;;;;;;;0.77;100.00;92620.38;1063526;55;20185;-86
2021/01/14 00:16:45;;;;;;;;;;;;;;;0.79;100.00;92620.75;1058999;56;20163;-84
2021/01/14 00:17:45;;;;;;;;;;;;;;;0.69;100.00;92622.19;1059322;56;20155;-85
2021/01/14 00:18:46;;;;;;;;;;;;;;;0.69;100.00;92617.69;1059385;56;20185;-85
2021/01/14 00:19:46;;;;;;;;;;;;;;;0.74;100.00;92616.59;1059213;56;20647;-85
2021/01/14 00:20:47;;;;;;;;;;;;;;;0.68;100.00;92620.69;1059262;56;20158;-86
2021/01/14 00:21:49;;;;;;;;;;;;;;;0.71;100.00;92625.97;1061488;56;20189;-85
2021/01/14 00:22:49;;;;;;;;;;;;;;;0.75;100.00;92628.63;1059458;56;20170;-85
2021/01/14 00:23:50;;;;;;;;;;;;;;;0.69;100.00;92619.56;1061470;56;20217;-86
2021/01/14 00:24:50;;;;;;;;;;;;;;;0.66;100.00;92628.94;1059325;56;20193;-85
2021/01/14 00:25:52;;;;;;;;;;;;;;;0.73;100.00;92633.50;1059400;56;21166;-84
2021/01/14 00:26:52;;;;;;;;;;;;;;;0.77;100.00;92628.25;1063769;55;20162;-85
2021/01/14 00:27:53;;;;;;;;;;;;;;;0.84;100.00;92618.56;1061413;56;20162;-85
2021/01/14 00:28:54;;;;;;;;;;;;;;;0.83;100.00;92621.53;1059408;56;20163;-84
2021/01/14 00:29:54;;;;;;;;;;;;;;;0.92;100.00;92629.84;1061521;56;20166;-85
2021/01/14 00:30:54;;;;;;;;;;;;;;;0.99;100.00;92630.66;1061466;56;20198;-86
2021/01/14 00:31:55;;;;;;;;;;;;;;;0.89;100.00;92634.00;1061414;56;20162;-85
2021/01/14 00:33:00;;;;;;;;;;;;;;;0.91;100.00;92630.97;1061415;56;20617;-85
2021/01/14 00:34:00;;;;;;;;;;;;;;;0.92;100.00;92620.09;1061431;56;20627;-84
2021/01/14 00:35:01;;;;;;;;;;;;;;;0.98;100.00;92628.41;1061293;56;20234;-84
2021/01/14 00:36:02;;;;;;;;;;;;;;;0.96;100.00;92625.38;1061462;56;20256;-83
2021/01/14 00:38:26;;;;;;;;;;;;;;;0.94;100.00;92638.16;1062367;56;20641;-85
2021/01/14 00:39:27;;;;;;;;;;;;;;;1.01;100.00;92627.69;1063564;55;20154;-85
2021/01/14 00:40:32;;;;;;;;;;;;;;;0.93;100.00;92640.03;1063595;55;20161;-85
2021/01/14 00:41:36;;;;;;;;;;;;;;;0.85;100.00;92638.47;1063795;55;20166;-85
2021/01/14 00:42:38;;;;;;;;;;;;;;;0.96;100.00;92641.16;1064074;55;20318;-85
2021/01/14 00:43:40;;;;;;;;;;;;;;;1.04;100.00;92641.97;1063642;55;20972;-85
2021/01/14 00:44:41;;;;;;;;;;;;;;;1.04;100.00;92637.47;1061598;56;20162;-85
2021/01/14 00:45:41;;;;;;;;;;;;;;;0.98;100.00;92644.94;1059548;56;20289;-84
2021/01/14 00:46:42;;;;;;;;;;;;;;;1.12;100.00;92651.41;1057392;56;20171;-86
2021/01/14 00:47:43;;;;;;;;;;;;;;;1.22;100.00;92638.31;1057204;56;20214;-85
2021/01/14 00:48:45;;;;;;;;;;;;;;;1.14;100.00;92633.38;1059500;56;20267;-84
2021/01/14 00:49:45;;;;;;;;;;;;;;;1.07;100.00;92657.03;1057355;56;20186;-85
2021/01/14 00:50:45;;;;;;;;;;;;;;;1.17;100.00;92648.44;1059405;56;20177;-86
2021/01/14 00:51:46;;;;;;;;;;;;;;;1.17;100.00;92640.53;1059472;56;20151;-85
2021/01/14 00:52:47;;;;;;;;;;;;;;;1.19;100.00;92646.97;1059433;56;20646;-86
2021/01/14 00:53:47;;;;;;;;;;;;;;;1.09;100.00;92652.16;1063632;55;20150;-86
2021/01/14 00:54:48;;;;;;;;;;;;;;;1.11;100.00;92655.94;1059526;56;20170;-84
2021/01/14 00:55:48;;;;;;;;;;;;;;;1.13;100.00;92658.19;1057243;56;20682;-83
2021/01/14 00:56:49;;;;;;;;;;;;;;;1.23;100.00;92660.16;1057616;56;20163;-86
2021/01/14 00:57:49;;;;;;;;;;;;;;;1.33;100.00;92656.06;1059576;56;20158;-86
2021/01/14 00:58:49;;;;;;;;;;;;;;;1.23;100.00;92652.25;1059661;56;20307;-85
2021/01/14 00:59:50;;;;;;;;;;;;;;;1.15;100.00;92658.59;1061636;56;21105;-85
2021/01/14 01:00:50;;;;;;;;;;;;;;;1.26;100.00;92656.75;1065173;55;20586;-86
2021/01/14 01:01:51;;;;;;;;;;;;;;;1.30;100.00;92657.53;1063731;55;20177;-84
2021/01/14 01:02:52;;;;;;;;;;;;;;;1.20;100.00;92652.97;1063708;55;20165;-86
2021/01/14 01:03:53;;;;;;;;;;;;;;;1.20;100.00;92661.63;1063712;55;20634;-83
2021/01/14 01:04:53;;;;;;;;;;;;;;;1.09;100.00;92663.44;1065969;55;20161;-85
2021/01/14 01:05:54;;;;;;;;;;;;;;;1.04;100.00;92663.03;1065851;55;20684;-84
2021/01/14 01:06:55;;;;;;;;;;;;;;;1.06;100.00;92669.44;1061177;56;20196;-84
2021/01/14 01:07:59;;;;;;;;;;;;;;;1.05;100.00;92672.41;1063393;55;20170;-84
2021/01/14 01:09:00;;;;;;;;;;;;;;;1.08;100.00;92680.34;1063396;55;20185;-84
2021/01/14 01:10:00;;;;;;;;;;;;;;;1.14;100.00;92675.47;1063565;55;20166;-84
2021/01/14 01:11:01;;;;;;;;;;;;;;;1.00;100.00;92681.41;1067626;55;20212;-87
2021/01/14 01:12:01;;;;;;;;;;;;;;;1.10;100.00;92678.13;1063380;55;20150;-84
2021/01/14 01:13:02;;;;;;;;;;;;;;;1.11;100.00;92679.62;1063447;55;20149;-85
2021/01/14 01:14:02;;;;;;;;;;;;;;;0.98;100.00;92679.16;1065529;55;20567;-85
2021/01/14 01:15:04;;;;;;;;;;;;;;;1.04;100.00;92679.56;1061220;56;20225;-83
2021/01/14 01:16:05;;;;;;;;;;;;;;;0.99;100.00;92678.03;1061202;55;20154;-87
2021/01/14 01:17:08;;;;;;;;;;;;;;;0.84;100.00;92680.94;1063354;55;20162;-85
2021/01/14 01:18:08;;;;;;;;;;;;;;;0.79;100.00;92684.66;1063321;55;20315;-84
2021/01/14 01:19:09;;;;;;;;;;;;;;;0.84;100.00;92680.94;1063367;55;20181;-84
2021/01/14 01:20:09;;;;;;;;;;;;;;;0.94;100.00;92686.25;1061303;56;20174;-86
2021/01/14 01:21:10;;;;;;;;;;;;;;;0.99;100.00;92696.44;1063513;55;20162;-83
2021/01/14 01:22:10;;;;;;;;;;;;;;;0.93;100.00;92691.91;1063401;55;20185;-84
2021/01/14 01:23:11;;;;;;;;;;;;;;;0.94;100.00;92688.16;1061257;56;20173;-85
2021/01/14 01:24:11;;;;;;;;;;;;;;;0.99;100.00;92690.44;1061431;56;20162;-83
2021/01/14 01:25:12;;;;;;;;;;;;;;;0.98;100.00;92697.56;1063496;55;20204;-85
2021/01/14 01:26:15;;;;;;;;;;;;;;;0.90;100.00;92703.91;1063349;55;20151;-83
2021/01/14 01:27:17;;;;;;;;;;;;;;;0.83;100.00;92700.44;1061354;56;20196;-84
2021/01/14 01:28:17;;;;;;;;;;;;;;;0.80;100.00;92709.84;1058965;56;20182;-85
2021/01/14 01:29:18;;;;;;;;;;;;;;;0.77;100.00;92704.53;1059067;56;21311;-83
2021/01/14 01:30:19;;;;;;;;;;;;;;;0.79;100.00;92700.44;1061329;55;21130;-85
2021/01/14 01:31:19;;;;;;;;;;;;;;;0.73;100.00;92707.13;1063396;55;20177;-83
2021/01/14 01:32:20;;;;;;;;;;;;;;;0.69;100.00;92717.62;1063464;55;20258;-83
2021/01/14 01:33:20;;;;;;;;;;;;;;;0.83;100.00;92701.19;1063502;55;20258;-83
2021/01/14 01:34:21;;;;;;;;;;;;;;;0.92;100.00;92704.31;1065651;55;20154;-85
2021/01/14 01:35:21;;;;;;;;;;;;;;;0.81;100.00;92713.22;1063458;55;20161;-84
2021/01/14 01:36:22;;;;;;;;;;;;;;;0.71;100.00;92704.13;1061286;56;20169;-84
2021/01/14 01:37:23;;;;;;;;;;;;;;;0.72;100.00;92711.66;1063468;55;20255;-86
2021/01/14 01:38:23;;;;;;;;;;;;;;;0.77;100.00;92712.44;1063480;55;20676;-86
2021/01/14 01:39:23;;;;;;;;;;;;;;;0.78;100.00;92714.69;1059143;56;20276;-85
2021/01/14 01:40:25;;;;;;;;;;;;;;;0.81;100.00;92711.34;1059210;56;20356;-83
2021/01/14 01:41:26;;;;;;;;;;;;;;;0.81;100.00;92715.84;1061252;55;20302;-85
2021/01/14 01:42:27;;;;;;;;;;;;;;;0.67;100.00;92719.12;1065674;55;20161;-85
2021/01/14 01:43:28;;;;;;;;;;;;;;;0.73;100.00;92726.31;1063529;55;20162;-83
2021/01/14 01:44:30;;;;;;;;;;;;;;;0.68;100.00;92723.25;1061368;55;20267;-84
2021/01/14 01:45:30;;;;;;;;;;;;;;;0.66;100.00;92726.25;1063415;55;20193;-84
2021/01/14 01:46:31;;;;;;;;;;;;;;;0.66;100.00;92722.84;1061203;56;20149;-84
2021/01/14 01:47:33;;;;;;;;;;;;;;;0.59;100.00;92728.06;1061350;55;20170;-85
2021/01/14 01:48:33;;;;;;;;;;;;;;;0.60;100.00;92727.69;1065643;55;20702;-84
2021/01/14 01:49:35;;;;;;;;;;;;;;;0.56;100.00;92732.16;1063407;55;20181;-83
2021/01/14 01:50:36;;;;;;;;;;;;;;;0.55;100.00;92724.66;1061297;55;20166;-83
2021/01/14 01:51:40;;;;;;;;;;;;;;;0.49;100.00;92724.97;1063510;55;20158;-84
2021/01/14 01:52:44;;;;;;;;;;;;;;;0.56;100.00;92723.53;1061485;56;20196;-85
2021/01/14 01:53:44;;;;;;;;;;;;;;;0.54;100.00;92726.53;1061374;56;20161;-84
2021/01/14 01:54:45;;;;;;;;;;;;;;;0.47;100.00;92727.19;1061183;56;20155;-84
2021/01/14 01:55:46;;;;;;;;;;;;;;;0.45;100.00;92733.94;1061153;56;20158;-84
2021/01/14 01:56:46;;;;;;;;;;;;;;;0.37;100.00;92727.84;1061264;56;20155;-85
2021/01/14 01:57:47;;;;;;;;;;;;;;;0.27;100.00;92733.00;1059093;56;20155;-84
2021/01/14 01:58:48;;;;;;;;;;;;;;;0.22;100.00;92732.22;1061285;56;20162;-84
2021/01/14 01:59:50;;;;;;;;;;;;;;;0.23;100.00;92725.84;1061473;56;20579;-84
2021/01/14 02:00:51;;;;;;;;;;;;;;;0.29;100.00;92728.13;1060482;56;20308;-83
2021/01/14 02:01:52;;;;;;;;;;;;;;;0.22;100.00;92734.06;1063335;55;20169;-85
2021/01/14 02:02:52;;;;;;;;;;;;;;;0.17;100.00;92732.50;1061160;56;20189;-84
2021/01/14 02:03:53;;;;;;;;;;;;;;;0.09;100.00;92735.44;1061406;56;20190;-82
2021/01/14 02:04:54;;;;;;;;;;;;;;;0.05;100.00;92732.78;1061276;56;20162;-83
2021/01/14 02:05:54;;;;;;;;;;;;;;;0.04;100.00;92733.88;1059287;56;20211;-85
2021/01/14 02:07:01;;;;;;;;;;;;;;;0.13;100.00;92730.97;1063520;55;20166;-84
2021/01/14 02:08:03;;;;;;;;;;;;;;;0.03;100.00;92724.47;1065563;55;20205;-83
2021/01/14 02:09:07;;;;;;;;;;;;;;;0.04;100.00;92731.25;1063352;55;20689;-84
2021/01/14 02:10:09;;;;;;;;;;;;;;;0.02;100.00;92730.09;1063524;55;20250;-85
2021/01/14 02:11:31;;;;;;;;;;;;;;;0.01;100.00;92736.47;1061511;56;20225;-83
2021/01/14 02:12:36;;;;;;;;;;;;;;;-0.09;100.00;92735.22;1059043;55;20158;-84
2021/01/14 02:13:39;;;;;;;;;;;;;;;-0.10;100.00;92731.09;1061250;56;20190;-85
2021/01/14 02:14:41;;;;;;;;;;;;;;;-0.10;100.00;92728.47;1063494;55;20642;-85
2021/01/14 02:15:42;;;;;;;;;;;;;;;-0.13;100.00;92734.41;1065532;55;20169;-84
2021/01/14 02:16:43;;;;;;;;;;;;;;;-0.18;100.00;92735.50;1063440;55;20187;-86
2021/01/14 02:17:43;;;;;;;;;;;;;;;-0.21;100.00;92738.84;1061253;56;20154;-85
2021/01/14 02:18:44;;;;;;;;;;;;;;;-0.17;100.00;92731.78;1061159;56;20162;-84
2021/01/14 02:19:47;;;;;;;;;;;;;;;-0.18;100.00;92735.50;1063293;56;20598;-83
2021/01/14 02:20:51;;;;;;;;;;;;;;;-0.19;100.00;92741.88;1061131;56;20181;-83
2021/01/14 02:21:54;;;;;;;;;;;;;;;-0.22;100.00;92739.97;1061274;56;20170;-84
2021/01/14 02:22:58;;;;;;;;;;;;;;;-0.21;100.00;92743.34;1059231;56;20154;-85
2021/01/14 02:24:08;;;;;;;;;;;;;;;-0.24;100.00;92741.44;1061849;55;20166;-83
2021/01/14 02:25:19;;;;;;;;;;;;;;;-0.27;100.00;92746.28;1063394;56;20544;-85
2021/01/14 02:26:23;;;;;;;;;;;;;;;-0.24;100.00;92738.81;1061722;56;21032;-84
2021/01/14 02:27:24;;;;;;;;;;;;;;;-0.25;100.00;92751.19;1061507;56;20197;-84
2021/01/14 02:28:26;;;;;;;;;;;;;;;-0.26;100.00;92741.78;1065749;55;20165;-85
2021/01/14 02:29:28;;;;;;;;;;;;;;;-0.24;100.00;92747.44;1061128;56;20158;-83
2021/01/14 02:30:29;;;;;;;;;;;;;;;-0.25;100.00;92751.19;1061378;56;20146;-85
2021/01/14 02:31:29;;;;;;;;;;;;;;;-0.31;100.00;92745.50;1061209;56;20193;-85
2021/01/14 02:32:31;;;;;;;;;;;;;;;-0.36;100.00;92748.41;1061230;56;20157;-85
2021/01/14 02:33:32;;;;;;;;;;;;;;;-0.35;100.00;92752.56;1063453;56;20695;-84
2021/01/14 02:34:33;;;;;;;;;;;;;;;-0.32;100.00;92756.34;1063397;56;20181;-84
2021/01/14 02:35:35;;;;;;;;;;;;;;;-0.36;100.00;92758.91;1061384;56;20640;-83
2021/01/14 02:36:36;;;;;;;;;;;;;;;-0.38;100.00;92761.16;1061262;56;20173;-85
2021/01/14 02:37:37;;;;;;;;;;;;;;;-0.40;100.00;92757.34;1061170;56;20722;-85
2021/01/14 02:38:39;;;;;;;;;;;;;;;-0.39;100.00;92758.88;1061543;55;20271;-85
2021/01/14 02:39:41;;;;;;;;;;;;;;;-0.40;100.00;92758.09;1061350;56;20194;-84
2021/01/14 02:40:41;;;;;;;;;;;;;;;-0.45;100.00;92755.78;1059429;56;20143;-85
2021/01/14 02:41:42;;;;;;;;;;;;;;;-0.44;100.00;92756.53;1059553;56;20628;-84
2021/01/14 02:42:43;;;;;;;;;;;;;;;-0.43;100.00;92750.19;1061686;56;20165;-86
2021/01/14 02:43:44;;;;;;;;;;;;;;;-0.41;100.00;92761.09;1061847;56;20555;-83
2021/01/14 02:44:45;;;;;;;;;;;;;;;-0.46;100.00;92753.53;1061900;56;20236;-85
2021/01/14 02:45:45;;;;;;;;;;;;;;;-0.46;100.00;92762.16;1062650;56;20181;-86
2021/01/14 02:46:46;;;;;;;;;;;;;;;-0.45;100.00;92755.78;1060465;56;20631;-85
2021/01/14 02:48:06;;;;;;;;;;;;;;;-0.47;100.00;92758.03;1062480;56;20182;-85
2021/01/14 02:49:11;;;;;;;;;;;;;;;-0.40;100.00;92746.84;1066254;55;20193;-85
2021/01/14 02:50:12;;;;;;;;;;;;;;;-0.36;100.00;92753.66;1064665;55;20158;-84
2021/01/14 02:51:31;;;;;;;;;;;;;;;-0.33;100.00;92750.31;1064675;55;20716;-87
2021/01/14 02:52:33;;;;;;;;;;;;;;;-0.31;100.00;92749.97;1066794;55;20192;-86
2021/01/14 02:53:36;;;;;;;;;;;;;;;-0.41;100.00;92753.97;1062644;56;20245;-86
2021/01/14 02:54:40;;;;;;;;;;;;;;;-0.40;100.00;92759.97;1062985;56;20608;-86
2021/01/14 02:55:41;;;;;;;;;;;;;;;-0.45;100.00;92761.03;1062759;55;20170;-85
2021/01/14 02:56:42;;;;;;;;;;;;;;;-0.42;100.00;92757.72;1062793;56;20158;-84
2021/01/14 02:57:44;;;;;;;;;;;;;;;-0.42;100.00;92756.97;1064657;55;20269;-85
2021/01/14 02:58:45;;;;;;;;;;;;;;;-0.45;100.00;92768.16;1060643;56;20234;-85
2021/01/14 02:59:46;;;;;;;;;;;;;;;-0.43;100.00;92763.31;1060288;56;20272;-86
2021/01/14 03:00:47;;;;;;;;;;;;;;;-0.47;100.00;92768.53;1063084;55;20189;-84
2021/01/14 03:01:48;;;;;;;;;;;;;;;-0.48;100.00;92772.25;1064512;55;20181;-85
2021/01/14 03:02:50;;;;;;;;;;;;;;;-0.42;100.00;92768.22;1062541;55;20198;-84
2021/01/14 03:03:50;;;;;;;;;;;;;;;-0.40;100.00;92775.72;1064744;55;20161;-84
2021/01/14 03:04:50;;;;;;;;;;;;;;;-0.44;100.00;92777.53;1064770;55;20146;-86
2021/01/14 03:05:51;;;;;;;;;;;;;;;-0.44;100.00;92774.91;1064885;55;20177;-85
2021/01/14 03:06:51;;;;;;;;;;;;;;;-0.48;100.00;92780.16;1064957;55;20158;-84
2021/01/14 03:07:52;;;;;;;;;;;;;;;-0.46;100.00;92775.28;1060844;56;20174;-86
2021/01/14 03:08:52;;;;;;;;;;;;;;;-0.45;100.00;92770.78;1062737;56;20154;-83
2021/01/14 03:09:54;;;;;;;;;;;;;;;-0.49;100.00;92777.84;1064896;55;20188;-86
2021/01/14 03:10:54;;;;;;;;;;;;;;;-0.51;100.00;92771.09;1064751;55;20193;-85
2021/01/14 03:11:55;;;;;;;;;;;;;;;-0.45;100.00;92770.78;1064982;55;20189;-84
2021/01/14 03:12:55;;;;;;;;;;;;;;;-0.41;100.00;92758.47;1064653;55;20622;-85
2021/01/14 03:13:56;;;;;;;;;;;;;;;-0.41;100.00;92769.72;1064944;55;20154;-86
2021/01/14 03:14:56;;;;;;;;;;;;;;;-0.46;100.00;92767.41;1064455;55;20180;-85
2021/01/14 03:15:57;;;;;;;;;;;;;;;-0.47;100.00;92759.91;1062382;56;20170;-85
2021/01/14 03:16:59;;;;;;;;;;;;;;;-0.52;100.00;92758.34;1062569;55;20214;-83
2021/01/14 03:17:59;;;;;;;;;;;;;;;-0.52;100.00;92756.47;1062440;56;20177;-85
2021/01/14 03:19:00;;;;;;;;;;;;;;;-0.48;100.00;92758.34;1062493;56;20982;-85
2021/01/14 03:20:00;;;;;;;;;;;;;;;-0.48;100.00;92764.38;1062703;56;20162;-84
2021/01/14 03:21:01;;;;;;;;;;;;;;;-0.57;100.00;92759.41;1060361;56;20706;-83
2021/01/14 03:22:01;;;;;;;;;;;;;;;-0.54;100.00;92771.03;1060463;56;20193;-86
2021/01/14 03:23:02;;;;;;;;;;;;;;;-0.54;100.00;92766.53;1064759;55;20150;-85
2021/01/14 03:24:04;;;;;;;;;;;;;;;-0.48;100.00;92763.59;1064786;55;20197;-85
2021/01/14 03:25:05;;;;;;;;;;;;;;;-0.48;100.00;92772.25;1064889;55;20162;-83
2021/01/14 03:26:06;;;;;;;;;;;;;;;-0.51;100.00;92770.34;1062746;56;20186;-85
2021/01/14 03:27:07;;;;;;;;;;;;;;;-0.53;100.00;92770.72;1062587;55;20161;-85
2021/01/14 03:28:10;;;;;;;;;;;;;;;-0.50;100.00;92769.22;1062932;56;20684;-84
2021/01/14 03:29:11;;;;;;;;;;;;;;;-0.53;100.00;92762.06;1060572;56;20151;-85
2021/01/14 03:30:15;;;;;;;;;;;;;;;-0.49;100.00;92767.34;1060723;56;20218;-86
2021/01/14 03:31:17;;;;;;;;;;;;;;;-0.57;100.00;92764.66;1062585;55;20166;-85
2021/01/14 03:32:18;;;;;;;;;;;;;;;-0.52;100.00;92766.97;1064762;55;20721;-86
2021/01/14 03:33:20;;;;;;;;;;;;;;;-0.51;100.00;92778.22;1062469;56;20272;-84
2021/01/14 03:34:21;;;;;;;;;;;;;;;-0.52;100.00;92777.47;1064722;55;20181;-86
2021/01/14 03:35:21;;;;;;;;;;;;;;;-0.48;100.00;92777.53;1066997;55;20591;-85
2021/01/14 03:36:22;;;;;;;;;;;;;;;-0.48;100.00;92779.34;1064574;55;20250;-85
2021/01/14 03:37:24;;;;;;;;;;;;;;;-0.53;100.00;92777.78;1064740;55;20189;-84
2021/01/14 03:38:25;;;;;;;;;;;;;;;-0.44;100.00;92774.91;1066879;55;20193;-85
2021/01/14 03:39:29;;;;;;;;;;;;;;;-0.43;100.00;92771.19;1064739;55;20185;-88
2021/01/14 03:40:29;;;;;;;;;;;;;;;-0.49;100.00;92762.84;1062727;55;20241;-87
2021/01/14 03:41:29;;;;;;;;;;;;;;;-0.47;100.00;92760.66;1062313;56;20307;-86
2021/01/14 03:42:30;;;;;;;;;;;;;;;-0.46;100.00;92761.41;1062572;56;20166;-84
2021/01/14 03:43:30;;;;;;;;;;;;;;;-0.48;100.00;92766.22;1064745;55;20173;-86
2021/01/14 03:44:31;;;;;;;;;;;;;;;-0.47;100.00;92773.03;1064736;55;20181;-84
2021/01/14 03:45:32;;;;;;;;;;;;;;;-0.58;100.00;92776.22;1062620;56;20158;-85
2021/01/14 03:46:33;;;;;;;;;;;;;;;-0.52;100.00;92769.59;1062212;55;20185;-84
2021/01/14 03:47:34;;;;;;;;;;;;;;;-0.51;100.00;92778.22;1062450;56;20292;-85
2021/01/14 03:48:38;;;;;;;;;;;;;;;-0.56;100.00;92781.91;1062665;55;20154;-86
2021/01/14 03:49:39;;;;;;;;;;;;;;;-0.58;100.00;92781.47;1064658;55;20162;-84
2021/01/14 03:50:41;;;;;;;;;;;;;;;-0.54;100.00;92779.66;1064556;55;20161;-84
2021/01/14 03:51:47;;;;;;;;;;;;;;;-0.59;100.00;92781.84;1066738;55;20157;-86
2021/01/14 03:52:50;;;;;;;;;;;;;;;-0.58;100.00;92770.97;1062640;56;20642;-85
2021/01/14 03:53:51;;;;;;;;;;;;;;;-0.54;100.00;92776.28;1062601;55;20161;-86
2021/01/14 03:54:51;;;;;;;;;;;;;;;-0.55;100.00;92775.53;1066793;55;20161;-85
2021/01/14 03:55:52;;;;;;;;;;;;;;;-0.62;100.00;92775.41;1066768;55;20153;-85
2021/01/14 03:56:52;;;;;;;;;;;;;;;-0.70;100.00;92773.84;1064570;55;20630;-84
2021/01/14 03:57:53;;;;;;;;;;;;;;;-0.63;100.00;92773.16;1066702;55;20710;-85
2021/01/14 03:58:55;;;;;;;;;;;;;;;-0.70;100.00;92779.06;1066565;55;20677;-85
2021/01/14 03:59:55;;;;;;;;;;;;;;;-0.74;100.00;92794.00;1064363;55;20162;-86
2021/01/14 04:00:56;;;;;;;;;;;;;;;-0.75;100.00;92784.59;1067339;55;20189;-88
2021/01/14 04:02:06;;;;;;;;;;;;;;;-0.74;100.00;92791.37;1066726;55;20196;-85
2021/01/14 04:03:08;;;;;;;;;;;;;;;-0.78;100.00;92793.94;1065145;55;20165;-83
2021/01/14 04:04:10;;;;;;;;;;;;;;;-0.75;100.00;92800.34;1066479;55;20165;-84
2021/01/14 04:05:11;;;;;;;;;;;;;;;-0.79;100.00;92791.66;1064432;55;20245;-84
2021/01/14 04:06:12;;;;;;;;;;;;;;;-0.79;100.00;92794.28;1068723;55;20210;-85
2021/01/14 04:07:13;;;;;;;;;;;;;;;-0.82;100.00;92801.00;1066563;55;20700;-82
2021/01/14 04:08:14;;;;;;;;;;;;;;;-0.84;100.00;92799.84;1066591;55;20215;-86
2021/01/14 04:09:15;;;;;;;;;;;;;;;-0.80;100.00;92800.66;1066534;55;20154;-86
2021/01/14 04:10:15;;;;;;;;;;;;;;;-0.82;100.00;92795.75;1064272;55;20294;-83
2021/01/14 04:11:16;;;;;;;;;;;;;;;-0.85;100.00;92793.84;1066631;55;20266;-85
2021/01/14 04:12:16;;;;;;;;;;;;;;;-0.79;100.00;92792.44;1070964;55;20168;-84
2021/01/14 04:13:17;;;;;;;;;;;;;;;-0.80;100.00;92790.16;1066337;55;20153;-84
2021/01/14 04:14:20;;;;;;;;;;;;;;;-0.82;100.00;92792.38;1064191;55;20157;-87
2021/01/14 04:15:20;;;;;;;;;;;;;;;-0.74;100.00;92801.88;1064509;55;20181;-86
2021/01/14 04:16:22;;;;;;;;;;;;;;;-0.82;100.00;92814.13;1062173;55;20158;-85
2021/01/14 04:17:22;;;;;;;;;;;;;;;-0.79;100.00;92802.16;1062213;56;20150;-89
2021/01/14 04:18:23;;;;;;;;;;;;;;;-0.80;100.00;92803.28;1064355;55;20154;-85
2021/01/14 04:19:25;;;;;;;;;;;;;;;-0.83;100.00;92796.88;1066500;55;20582;-85
2021/01/14 04:20:25;;;;;;;;;;;;;;;-0.82;100.00;92802.88;1066600;55;20173;-83
2021/01/14 04:21:26;;;;;;;;;;;;;;;-0.83;100.00;92802.12;1066276;55;20184;-83
2021/01/14 04:22:26;;;;;;;;;;;;;;;-0.78;100.00;92793.19;1068407;55;20222;-86
2021/01/14 04:23:27;;;;;;;;;;;;;;;-0.84;100.00;92786.72;1068277;55;20626;-85
2021/01/14 04:24:36;;;;;;;;;;;;;;;-0.82;100.00;92792.38;1064071;55;20247;-83
2021/01/14 04:25:36;;;;;;;;;;;;;;;-0.82;100.00;92793.13;1064472;55;20161;-84
2021/01/14 04:26:38;;;;;;;;;;;;;;;-0.88;100.00;92797.19;1060249;56;20154;-84
2021/01/14 04:27:39;;;;;;;;;;;;;;;-0.87;100.00;92797.94;1064157;55;20197;-84
2021/01/14 04:28:40;;;;;;;;;;;;;;;-0.85;100.00;92799.09;1064239;55;20259;-85
2021/01/14 04:29:40;;;;;;;;;;;;;;;-0.79;100.00;92802.16;1064242;55;20185;-83
2021/01/14 04:30:40;;;;;;;;;;;;;;;-0.82;100.00;92801.00;1064148;55;20205;-86
2021/01/14 04:31:41;;;;;;;;;;;;;;;-0.81;100.00;92799.13;1062133;56;20173;-85
2021/01/14 04:32:41;;;;;;;;;;;;;;;-0.89;100.00;92790.41;1064172;55;20185;-85
2021/01/14 04:33:43;;;;;;;;;;;;;;;-0.90;100.00;92798.63;1061980;55;20162;-84
2021/01/14 04:34:44;;;;;;;;;;;;;;;-0.90;100.00;92802.00;1059915;56;20163;-83
2021/01/14 04:35:51;;;;;;;;;;;;;;;-0.82;100.00;92801.00;1061818;56;20154;-85
2021/01/14 04:36:58;;;;;;;;;;;;;;;-0.83;100.00;92804.75;1064244;55;20158;-85
2021/01/14 04:37:58;;;;;;;;;;;;;;;-0.88;100.00;92820.78;1064115;55;20170;-85
2021/01/14 04:38:59;;;;;;;;;;;;;;;-0.94;100.00;92810.94;1063902;55;20157;-85
2021/01/14 04:39:59;;;;;;;;;;;;;;;-0.94;100.00;92810.94;1064041;55;20267;-85
2021/01/14 04:41:02;;;;;;;;;;;;;;;-0.98;100.00;92817.97;1066117;55;20162;-85
2021/01/14 04:42:03;;;;;;;;;;;;;;;-0.95;100.00;92823.28;1061986;56;20162;-84
2021/01/14 04:43:05;;;;;;;;;;;;;;;-0.96;100.00;92824.41;1061922;55;20610;-83
2021/01/14 04:44:05;;;;;;;;;;;;;;;-0.97;100.00;92817.62;1066194;55;20161;-85
2021/01/14 04:45:09;;;;;;;;;;;;;;;-0.98;100.00;92820.59;1064165;55;21125;-84
2021/01/14 04:46:11;;;;;;;;;;;;;;;-1.01;100.00;92827.28;1062051;56;20158;-85
2021/01/14 04:47:15;;;;;;;;;;;;;;;-1.00;100.00;92823.59;1063963;55;20192;-85
2021/01/14 04:48:17;;;;;;;;;;;;;;;-1.03;100.00;92825.03;1064151;55;20166;-84
2021/01/14 04:49:18;;;;;;;;;;;;;;;-1.02;100.00;92825.78;1064132;55;20185;-84
2021/01/14 04:50:19;;;;;;;;;;;;;;;-0.94;100.00;92819.56;1064266;55;20208;-86
2021/01/14 04:51:22;;;;;;;;;;;;;;;-0.93;100.00;92828.16;1062129;56;20201;-87
2021/01/14 04:52:26;;;;;;;;;;;;;;;-0.93;100.00;92822.94;1062082;56;20587;-85
2021/01/14 04:53:29;;;;;;;;;;;;;;;-0.93;100.00;92828.94;1062182;56;20181;-87
2021/01/14 04:54:33;;;;;;;;;;;;;;;-0.93;100.00;92828.16;1064208;55;20302;-85
2021/01/14 04:55:55;;;;;;;;;;;;;;;-0.93;100.00;92825.56;1064160;55;20574;-86
2021/01/14 04:56:59;;;;;;;;;;;;;;;-0.86;100.00;92839.53;1062886;56;20614;-86
2021/01/14 04:58:02;;;;;;;;;;;;;;;-0.98;100.00;92841.59;1060282;56;20170;-85
2021/01/14 04:59:04;;;;;;;;;;;;;;;-1.00;100.00;92833.31;1060140;56;20178;-85
2021/01/14 05:00:05;;;;;;;;;;;;;;;-0.98;100.00;92839.72;1060036;56;20155;-83
2021/01/14 05:01:17;;;;;;;;;;;;;;;-1.00;100.00;92841.19;1064199;55;20274;-85
2021/01/14 05:02:21;;;;;;;;;;;;;;;-1.05;100.00;92842.25;1064015;55;20172;-82
2021/01/14 05:03:23;;;;;;;;;;;;;;;-0.95;100.00;92835.66;1064022;55;20661;-84
2021/01/14 05:04:28;;;;;;;;;;;;;;;-1.00;100.00;92828.81;1064052;55;20189;-84
2021/01/14 05:05:30;;;;;;;;;;;;;;;-1.00;100.00;92830.69;1059870;56;20704;-84
2021/01/14 05:06:33;;;;;;;;;;;;;;;-0.97;100.00;92827.34;1059923;56;20162;-84
2021/01/14 05:07:34;;;;;;;;;;;;;;;-1.01;100.00;92832.53;1059744;56;20226;-85
2021/01/14 05:08:37;;;;;;;;;;;;;;;-0.97;100.00;92829.97;1059823;56;20171;-85
2021/01/14 05:09:39;;;;;;;;;;;;;;;-0.99;100.00;92832.22;1063932;55;20677;-85
2021/01/14 05:10:39;;;;;;;;;;;;;;;-1.00;100.00;92834.06;1064195;55;20204;-85
2021/01/14 05:11:44;;;;;;;;;;;;;;;-1.04;100.00;92830.63;1060054;56;20580;-84
2021/01/14 05:12:44;;;;;;;;;;;;;;;-1.04;100.00;92828.00;1060026;56;20173;-84
2021/01/14 05:13:45;;;;;;;;;;;;;;;-1.01;100.00;92827.28;1059565;56;20190;-86
2021/01/14 05:14:46;;;;;;;;;;;;;;;-0.99;100.00;92824.34;1062226;56;20147;-84
2021/01/14 05:15:46;;;;;;;;;;;;;;;-1.05;100.00;92821.25;1063971;55;20217;-84
2021/01/14 05:16:47;;;;;;;;;;;;;;;-1.02;100.00;92821.28;1061866;56;20641;-84
2021/01/14 05:17:48;;;;;;;;;;;;;;;-1.03;100.00;92819.03;1059794;56;20190;-83
2021/01/14 05:18:48;;;;;;;;;;;;;;;-1.12;100.00;92816.62;1057661;56;20159;-85
2021/01/14 05:19:52;;;;;;;;;;;;;;;-1.06;100.00;92815.22;1057794;56;20210;-86